KCNY/CNY METAR and TAF weather

Enter ICAO airport designator
Station Type Date Time Source
KCNY METAR 2022/01/29 00:53 UTC NOAA

KCNY 290053Z AUTO 02005KT 10SM CLR 00/M12 A3052 RMK AO2 SLP374 T00001117 TSNO


Station Type Date Time Source
KCNY Decoded METAR 2022/01/29 00:53 UTC NOAA

MOAB CANYONLANDS FIELD, UT, United States (KCNY) 38-46N 109-45W 1390M
Jan 28, 2022 - 07:53 PM EST / 2022.01.29 0053 UTC
Wind: from the NNE (020 degrees) at 6 MPH (5 KT):0
Visibility: 10 mile(s):0
Sky conditions: clear
Temperature: 32.0 F (0.0 C)
Windchill: 26 F (-3 C):1
Dew Point: 10.9 F (-11.7 C)
Relative Humidity: 40%
Pressure (altimeter): 30.52 in. Hg (1033 hPa)
ob: KCNY 290053Z AUTO 02005KT 10SM CLR 00/M12 A3052 RMK AO2 SLP374 T00001117 TSNO
cycle: 1

Station Type Date Time Source
KCNY TAF 2022/01/28 18:22 UTC NOAA

TAF KCNY 281720Z 2818/2918 VRB04KT P6SM SKC

Example: see airport list